Uden/Volkel, Netherlands
Current Conditions -  °F | °C
As of 8:55 AM on Wednesday 22 Oct 2014 (Local Time) from EHVK Reporting Station
Broken Clouds Broken Clouds  
Wind Chill: 43°   Ceiling: 4500
Heat Index: 46°   Visibility: 6mi
Dew Point: 45°   Wind: 7mph
Humidity: 93%   Direction: 260°W
Pressure: 30"   Gusts: NA
Location:  51.64°N, 5.66°E
Report Text: EHVK 220655Z AUTO 26006KT 9999 FEW020 SCT034 BKN045 08/07 Q1016 BLU 29010KT 9999 FEW020 BKN030 TEMPO 29015G25KT SHRA FEW015 SCT020CB BKN025
Loading
Personal Weather Stations






























Interactive Weather Map
Tropical Storm Tracking
New forecast layout! Learn more

10-Day Weather Forecast

Advertisements
Track Severe Weather on mobile